sensor_id;sensor_type;location;lat;lon;timestamp;P1;durP1;ratioP1;P2;durP2;ratioP2
55815;SDS011;41744;52.404;16.942;2023-04-08T00:01:19;19.50;;;8.67;;
55815;SDS011;41744;52.404;16.942;2023-04-08T00:03:45;18.63;;;8.33;;
55815;SDS011;41744;52.404;16.942;2023-04-08T00:06:11;19.17;;;8.77;;
55815;SDS011;41744;52.404;16.942;2023-04-08T00:08:37;18.97;;;8.20;;
55815;SDS011;41744;52.404;16.942;2023-04-08T00:11:03;16.63;;;8.03;;
55815;SDS011;41744;52.404;16.942;2023-04-08T00:13:29;24.83;;;8.70;;
55815;SDS011;41744;52.404;16.942;2023-04-08T00:15:56;18.20;;;8.77;;
55815;SDS011;41744;52.404;16.942;2023-04-08T00:18:23;15.50;;;7.57;;
55815;SDS011;41744;52.404;16.942;2023-04-08T00:20:49;21.77;;;8.23;;
55815;SDS011;41744;52.404;16.942;2023-04-08T00:23:15;19.20;;;8.10;;
55815;SDS011;41744;52.404;16.942;2023-04-08T00:25:41;18.50;;;8.37;;
55815;SDS011;41744;52.404;16.942;2023-04-08T00:28:07;19.43;;;8.27;;
55815;SDS011;41744;52.404;16.942;2023-04-08T00:30:33;19.80;;;8.20;;
55815;SDS011;41744;52.404;16.942;2023-04-08T00:32:59;18.00;;;8.60;;
55815;SDS011;41744;52.404;16.942;2023-04-08T00:35:26;17.37;;;7.40;;
55815;SDS011;41744;52.404;16.942;2023-04-08T00:37:52;16.83;;;7.50;;
55815;SDS011;41744;52.404;16.942;2023-04-08T00:40:18;15.50;;;7.27;;
55815;SDS011;41744;52.404;16.942;2023-04-08T00:42:44;18.17;;;7.80;;
55815;SDS011;41744;52.404;16.942;2023-04-08T00:45:10;18.67;;;8.47;;
55815;SDS011;41744;52.404;16.942;2023-04-08T00:47:37;18.23;;;7.33;;
55815;SDS011;41744;52.404;16.942;2023-04-08T00:50:03;17.67;;;7.87;;
55815;SDS011;41744;52.404;16.942;2023-04-08T00:52:29;20.53;;;8.43;;
55815;SDS011;41744;52.404;16.942;2023-04-08T00:54:55;16.70;;;7.17;;
55815;SDS011;41744;52.404;16.942;2023-04-08T00:57:21;19.43;;;7.87;;
55815;SDS011;41744;52.404;16.942;2023-04-08T00:59:47;21.27;;;7.67;;
55815;SDS011;41744;52.404;16.942;2023-04-08T01:04:45;19.03;;;8.20;;
55815;SDS011;41744;52.404;16.942;2023-04-08T01:07:24;17.17;;;8.00;;
55815;SDS011;41744;52.404;16.942;2023-04-08T01:09:55;18.87;;;8.03;;
55815;SDS011;41744;52.404;16.942;2023-04-08T01:12:26;18.60;;;8.03;;
55815;SDS011;41744;52.404;16.942;2023-04-08T01:14:55;18.03;;;8.30;;
55815;SDS011;41744;52.404;16.942;2023-04-08T01:17:22;22.27;;;8.80;;
55815;SDS011;41744;52.404;16.942;2023-04-08T01:19:48;20.63;;;7.80;;
55815;SDS011;41744;52.404;16.942;2023-04-08T01:22:18;21.60;;;8.33;;
55815;SDS011;41744;52.404;16.942;2023-04-08T01:24:47;20.40;;;8.63;;
55815;SDS011;41744;52.404;16.942;2023-04-08T01:27:15;20.23;;;7.73;;
55815;SDS011;41744;52.404;16.942;2023-04-08T01:29:41;20.30;;;8.70;;
55815;SDS011;41744;52.404;16.942;2023-04-08T01:32:08;23.10;;;8.57;;
55815;SDS011;41744;52.404;16.942;2023-04-08T01:34:35;16.47;;;7.50;;
55815;SDS011;41744;52.404;16.942;2023-04-08T01:37:01;19.33;;;8.43;;
55815;SDS011;41744;52.404;16.942;2023-04-08T01:39:29;20.43;;;8.47;;
55815;SDS011;41744;52.404;16.942;2023-04-08T01:41:55;17.37;;;8.27;;
55815;SDS011;41744;52.404;16.942;2023-04-08T01:44:23;21.73;;;8.73;;
55815;SDS011;41744;52.404;16.942;2023-04-08T01:46:51;19.83;;;8.37;;
55815;SDS011;41744;52.404;16.942;2023-04-08T01:49:17;20.77;;;8.60;;
55815;SDS011;41744;52.404;16.942;2023-04-08T01:51:44;19.03;;;8.90;;
55815;SDS011;41744;52.404;16.942;2023-04-08T01:54:11;21.00;;;8.37;;
55815;SDS011;41744;52.404;16.942;2023-04-08T01:56:38;20.37;;;8.63;;
55815;SDS011;41744;52.404;16.942;2023-04-08T01:59:13;19.20;;;8.37;;
55815;SDS011;41744;52.404;16.942;2023-04-08T02:01:40;18.73;;;8.17;;
55815;SDS011;41744;52.404;16.942;2023-04-08T02:04:07;18.73;;;8.10;;
55815;SDS011;41744;52.404;16.942;2023-04-08T02:06:33;17.63;;;8.40;;
55815;SDS011;41744;52.404;16.942;2023-04-08T02:09:00;16.90;;;8.00;;
55815;SDS011;41744;52.404;16.942;2023-04-08T02:11:26;23.67;;;8.70;;
55815;SDS011;41744;52.404;16.942;2023-04-08T02:13:53;20.03;;;8.60;;
55815;SDS011;41744;52.404;16.942;2023-04-08T02:16:23;18.43;;;8.27;;
55815;SDS011;41744;52.404;16.942;2023-04-08T02:19:01;22.13;;;8.77;;
55815;SDS011;41744;52.404;16.942;2023-04-08T02:21:42;20.93;;;8.23;;
55815;SDS011;41744;52.404;16.942;2023-04-08T02:24:09;21.33;;;9.03;;
55815;SDS011;41744;52.404;16.942;2023-04-08T02:26:37;22.30;;;9.73;;
55815;SDS011;41744;52.404;16.942;2023-04-08T02:29:04;25.57;;;10.53;;
55815;SDS011;41744;52.404;16.942;2023-04-08T02:31:30;21.43;;;9.30;;
55815;SDS011;41744;52.404;16.942;2023-04-08T02:33:56;18.80;;;8.63;;
55815;SDS011;41744;52.404;16.942;2023-04-08T02:36:23;23.23;;;9.63;;
55815;SDS011;41744;52.404;16.942;2023-04-08T02:38:50;20.27;;;9.00;;
55815;SDS011;41744;52.404;16.942;2023-04-08T02:41:16;23.17;;;9.50;;
55815;SDS011;41744;52.404;16.942;2023-04-08T02:43:42;23.10;;;9.30;;
55815;SDS011;41744;52.404;16.942;2023-04-08T02:46:08;21.63;;;9.00;;
55815;SDS011;41744;52.404;16.942;2023-04-08T02:48:35;20.07;;;8.57;;
55815;SDS011;41744;52.404;16.942;2023-04-08T02:51:01;26.63;;;9.73;;
55815;SDS011;41744;52.404;16.942;2023-04-08T02:53:27;22.67;;;9.90;;
55815;SDS011;41744;52.404;16.942;2023-04-08T02:55:53;20.17;;;8.77;;
55815;SDS011;41744;52.404;16.942;2023-04-08T02:58:20;21.67;;;9.27;;
55815;SDS011;41744;52.404;16.942;2023-04-08T03:00:46;25.27;;;9.03;;
55815;SDS011;41744;52.404;16.942;2023-04-08T03:03:12;24.80;;;9.40;;
55815;SDS011;41744;52.404;16.942;2023-04-08T03:05:38;25.73;;;9.57;;
55815;SDS011;41744;52.404;16.942;2023-04-08T03:08:04;21.60;;;9.40;;
55815;SDS011;41744;52.404;16.942;2023-04-08T03:10:30;23.40;;;9.00;;
55815;SDS011;41744;52.404;16.942;2023-04-08T03:12:56;22.87;;;9.50;;
55815;SDS011;41744;52.404;16.942;2023-04-08T03:15:22;22.47;;;9.43;;
55815;SDS011;41744;52.404;16.942;2023-04-08T03:17:49;23.80;;;9.17;;
55815;SDS011;41744;52.404;16.942;2023-04-08T03:20:15;25.20;;;9.13;;
55815;SDS011;41744;52.404;16.942;2023-04-08T03:22:41;25.40;;;10.83;;
55815;SDS011;41744;52.404;16.942;2023-04-08T03:25:07;21.93;;;9.83;;
55815;SDS011;41744;52.404;16.942;2023-04-08T03:27:33;23.20;;;9.87;;
55815;SDS011;41744;52.404;16.942;2023-04-08T03:29:59;21.37;;;8.93;;
55815;SDS011;41744;52.404;16.942;2023-04-08T03:32:25;22.23;;;9.90;;
55815;SDS011;41744;52.404;16.942;2023-04-08T03:34:51;24.13;;;9.63;;
55815;SDS011;41744;52.404;16.942;2023-04-08T03:37:17;22.93;;;9.47;;
55815;SDS011;41744;52.404;16.942;2023-04-08T03:39:44;26.20;;;10.80;;
55815;SDS011;41744;52.404;16.942;2023-04-08T03:42:10;23.37;;;9.23;;
55815;SDS011;41744;52.404;16.942;2023-04-08T03:44:36;25.20;;;9.93;;
55815;SDS011;41744;52.404;16.942;2023-04-08T03:47:02;25.33;;;9.33;;
55815;SDS011;41744;52.404;16.942;2023-04-08T03:49:28;21.57;;;9.40;;
55815;SDS011;41744;52.404;16.942;2023-04-08T03:51:54;22.00;;;9.30;;
55815;SDS011;41744;52.404;16.942;2023-04-08T03:54:20;22.73;;;9.47;;
55815;SDS011;41744;52.404;16.942;2023-04-08T03:56:47;26.73;;;10.20;;
55815;SDS011;41744;52.404;16.942;2023-04-08T03:59:14;22.03;;;9.80;;
55815;SDS011;41744;52.404;16.942;2023-04-08T04:01:40;24.47;;;10.07;;
55815;SDS011;41744;52.404;16.942;2023-04-08T04:04:06;24.93;;;10.00;;
55815;SDS011;41744;52.404;16.942;2023-04-08T04:06:32;28.47;;;10.17;;
55815;SDS011;41744;52.404;16.942;2023-04-08T04:08:58;25.27;;;10.33;;
55815;SDS011;41744;52.404;16.942;2023-04-08T04:11:24;27.53;;;10.60;;
55815;SDS011;41744;52.404;16.942;2023-04-08T04:13:51;25.93;;;10.87;;
55815;SDS011;41744;52.404;16.942;2023-04-08T04:16:17;23.17;;;10.37;;
55815;SDS011;41744;52.404;16.942;2023-04-08T04:18:43;26.17;;;10.30;;
55815;SDS011;41744;52.404;16.942;2023-04-08T04:21:09;26.00;;;9.47;;
55815;SDS011;41744;52.404;16.942;2023-04-08T04:23:35;23.77;;;10.30;;
55815;SDS011;41744;52.404;16.942;2023-04-08T04:26:01;22.23;;;9.77;;
55815;SDS011;41744;52.404;16.942;2023-04-08T04:28:27;26.83;;;11.17;;
55815;SDS011;41744;52.404;16.942;2023-04-08T04:30:53;28.40;;;10.47;;
55815;SDS011;41744;52.404;16.942;2023-04-08T04:33:19;24.10;;;10.47;;
55815;SDS011;41744;52.404;16.942;2023-04-08T04:35:45;23.83;;;10.17;;
55815;SDS011;41744;52.404;16.942;2023-04-08T04:38:12;25.70;;;10.97;;
55815;SDS011;41744;52.404;16.942;2023-04-08T04:40:38;24.77;;;10.23;;
55815;SDS011;41744;52.404;16.942;2023-04-08T04:43:04;24.33;;;9.77;;
55815;SDS011;41744;52.404;16.942;2023-04-08T04:45:30;24.10;;;9.63;;
55815;SDS011;41744;52.404;16.942;2023-04-08T04:47:57;27.37;;;10.23;;
55815;SDS011;41744;52.404;16.942;2023-04-08T04:50:23;23.93;;;10.67;;
55815;SDS011;41744;52.404;16.942;2023-04-08T04:52:49;24.63;;;10.47;;
55815;SDS011;41744;52.404;16.942;2023-04-08T04:55:15;23.50;;;10.50;;
55815;SDS011;41744;52.404;16.942;2023-04-08T04:57:41;25.90;;;10.47;;
55815;SDS011;41744;52.404;16.942;2023-04-08T05:00:08;25.00;;;10.03;;
55815;SDS011;41744;52.404;16.942;2023-04-08T05:02:34;25.37;;;10.47;;
55815;SDS011;41744;52.404;16.942;2023-04-08T05:05:01;26.20;;;11.20;;
55815;SDS011;41744;52.404;16.942;2023-04-08T05:07:27;24.60;;;10.60;;
55815;SDS011;41744;52.404;16.942;2023-04-08T05:09:53;25.77;;;10.63;;
55815;SDS011;41744;52.404;16.942;2023-04-08T05:12:19;28.57;;;10.90;;
55815;SDS011;41744;52.404;16.942;2023-04-08T05:14:45;29.17;;;11.97;;
55815;SDS011;41744;52.404;16.942;2023-04-08T05:17:11;29.17;;;12.03;;
55815;SDS011;41744;52.404;16.942;2023-04-08T05:19:38;30.27;;;11.73;;
55815;SDS011;41744;52.404;16.942;2023-04-08T05:22:04;30.47;;;11.97;;
55815;SDS011;41744;52.404;16.942;2023-04-08T05:24:30;26.37;;;11.43;;
55815;SDS011;41744;52.404;16.942;2023-04-08T05:26:56;28.20;;;11.70;;
55815;SDS011;41744;52.404;16.942;2023-04-08T05:29:22;30.40;;;11.40;;
55815;SDS011;41744;52.404;16.942;2023-04-08T05:31:48;28.43;;;11.47;;
55815;SDS011;41744;52.404;16.942;2023-04-08T05:34:14;22.97;;;10.37;;
55815;SDS011;41744;52.404;16.942;2023-04-08T05:36:46;24.77;;;11.30;;
55815;SDS011;41744;52.404;16.942;2023-04-08T05:39:16;24.37;;;10.33;;
55815;SDS011;41744;52.404;16.942;2023-04-08T05:41:42;21.97;;;10.20;;
55815;SDS011;41744;52.404;16.942;2023-04-08T05:44:08;24.70;;;9.97;;
55815;SDS011;41744;52.404;16.942;2023-04-08T05:46:36;26.90;;;10.63;;
55815;SDS011;41744;52.404;16.942;2023-04-08T05:49:02;23.73;;;10.90;;
55815;SDS011;41744;52.404;16.942;2023-04-08T05:51:28;29.00;;;11.40;;
55815;SDS011;41744;52.404;16.942;2023-04-08T05:53:54;28.07;;;12.23;;
55815;SDS011;41744;52.404;16.942;2023-04-08T05:56:20;28.20;;;11.60;;
55815;SDS011;41744;52.404;16.942;2023-04-08T05:58:46;23.53;;;11.33;;
55815;SDS011;41744;52.404;16.942;2023-04-08T06:01:12;26.87;;;11.53;;
55815;SDS011;41744;52.404;16.942;2023-04-08T06:03:38;27.73;;;11.33;;
55815;SDS011;41744;52.404;16.942;2023-04-08T06:06:08;28.77;;;11.57;;
55815;SDS011;41744;52.404;16.942;2023-04-08T06:08:35;30.23;;;12.23;;
55815;SDS011;41744;52.404;16.942;2023-04-08T06:11:01;29.53;;;11.63;;
55815;SDS011;41744;52.404;16.942;2023-04-08T06:13:31;28.33;;;11.93;;
55815;SDS011;41744;52.404;16.942;2023-04-08T06:15:57;26.77;;;10.90;;
55815;SDS011;41744;52.404;16.942;2023-04-08T06:18:24;28.27;;;12.00;;
55815;SDS011;41744;52.404;16.942;2023-04-08T06:20:50;28.63;;;12.07;;
55815;SDS011;41744;52.404;16.942;2023-04-08T06:23:16;31.13;;;11.60;;
55815;SDS011;41744;52.404;16.942;2023-04-08T06:25:42;27.77;;;11.87;;
55815;SDS011;41744;52.404;16.942;2023-04-08T06:28:08;31.17;;;12.23;;
55815;SDS011;41744;52.404;16.942;2023-04-08T06:30:34;27.33;;;11.07;;
55815;SDS011;41744;52.404;16.942;2023-04-08T06:33:00;26.87;;;11.17;;
55815;SDS011;41744;52.404;16.942;2023-04-08T06:35:26;30.37;;;11.87;;
55815;SDS011;41744;52.404;16.942;2023-04-08T06:37:52;28.83;;;12.10;;
55815;SDS011;41744;52.404;16.942;2023-04-08T06:40:18;29.63;;;12.47;;
55815;SDS011;41744;52.404;16.942;2023-04-08T06:42:44;29.20;;;11.77;;
55815;SDS011;41744;52.404;16.942;2023-04-08T06:45:10;26.90;;;12.40;;
55815;SDS011;41744;52.404;16.942;2023-04-08T06:47:36;30.10;;;12.57;;
55815;SDS011;41744;52.404;16.942;2023-04-08T06:50:02;33.17;;;12.97;;
55815;SDS011;41744;52.404;16.942;2023-04-08T06:52:28;28.40;;;12.40;;
55815;SDS011;41744;52.404;16.942;2023-04-08T06:54:54;33.10;;;13.50;;
55815;SDS011;41744;52.404;16.942;2023-04-08T06:57:21;29.23;;;12.50;;
55815;SDS011;41744;52.404;16.942;2023-04-08T06:59:47;32.10;;;12.73;;
55815;SDS011;41744;52.404;16.942;2023-04-08T07:02:13;30.13;;;12.50;;
55815;SDS011;41744;52.404;16.942;2023-04-08T07:04:39;26.93;;;12.63;;
55815;SDS011;41744;52.404;16.942;2023-04-08T07:07:05;35.07;;;13.30;;
55815;SDS011;41744;52.404;16.942;2023-04-08T07:09:31;28.20;;;12.60;;
55815;SDS011;41744;52.404;16.942;2023-04-08T07:11:57;31.50;;;13.17;;
55815;SDS011;41744;52.404;16.942;2023-04-08T07:14:24;31.70;;;13.30;;
55815;SDS011;41744;52.404;16.942;2023-04-08T07:16:50;27.63;;;12.43;;
55815;SDS011;41744;52.404;16.942;2023-04-08T07:19:16;28.93;;;13.03;;
55815;SDS011;41744;52.404;16.942;2023-04-08T07:21:42;31.47;;;12.77;;
55815;SDS011;41744;52.404;16.942;2023-04-08T07:24:08;28.20;;;12.63;;
55815;SDS011;41744;52.404;16.942;2023-04-08T07:26:34;26.67;;;12.37;;
55815;SDS011;41744;52.404;16.942;2023-04-08T07:29:00;28.80;;;12.17;;
55815;SDS011;41744;52.404;16.942;2023-04-08T07:31:26;28.13;;;12.13;;
55815;SDS011;41744;52.404;16.942;2023-04-08T07:33:52;27.83;;;12.17;;
55815;SDS011;41744;52.404;16.942;2023-04-08T07:36:18;29.53;;;11.50;;
55815;SDS011;41744;52.404;16.942;2023-04-08T07:38:45;24.47;;;11.50;;
55815;SDS011;41744;52.404;16.942;2023-04-08T07:41:11;28.73;;;12.50;;
55815;SDS011;41744;52.404;16.942;2023-04-08T07:43:37;27.07;;;11.40;;
55815;SDS011;41744;52.404;16.942;2023-04-08T07:46:04;26.83;;;10.83;;
55815;SDS011;41744;52.404;16.942;2023-04-08T07:48:30;26.90;;;11.00;;
55815;SDS011;41744;52.404;16.942;2023-04-08T07:50:56;25.60;;;11.70;;
55815;SDS011;41744;52.404;16.942;2023-04-08T07:53:23;29.90;;;11.70;;
55815;SDS011;41744;52.404;16.942;2023-04-08T07:55:50;24.13;;;10.73;;
55815;SDS011;41744;52.404;16.942;2023-04-08T07:58:18;24.13;;;10.90;;
55815;SDS011;41744;52.404;16.942;2023-04-08T08:00:45;27.90;;;11.87;;
55815;SDS011;41744;52.404;16.942;2023-04-08T08:03:11;29.87;;;12.03;;
55815;SDS011;41744;52.404;16.942;2023-04-08T08:05:38;25.20;;;10.77;;
55815;SDS011;41744;52.404;16.942;2023-04-08T08:08:05;27.63;;;10.83;;
55815;SDS011;41744;52.404;16.942;2023-04-08T08:10:32;26.33;;;11.40;;
55815;SDS011;41744;52.404;16.942;2023-04-08T08:12:58;26.10;;;11.57;;
55815;SDS011;41744;52.404;16.942;2023-04-08T08:15:24;26.33;;;11.57;;
55815;SDS011;41744;52.404;16.942;2023-04-08T08:17:50;26.47;;;11.77;;
55815;SDS011;41744;52.404;16.942;2023-04-08T08:20:16;23.23;;;10.70;;
55815;SDS011;41744;52.404;16.942;2023-04-08T08:22:42;21.87;;;9.87;;
55815;SDS011;41744;52.404;16.942;2023-04-08T08:25:09;24.70;;;11.60;;
55815;SDS011;41744;52.404;16.942;2023-04-08T08:27:35;26.47;;;10.80;;
55815;SDS011;41744;52.404;16.942;2023-04-08T08:30:02;28.37;;;11.47;;
55815;SDS011;41744;52.404;16.942;2023-04-08T08:32:28;27.20;;;11.07;;
55815;SDS011;41744;52.404;16.942;2023-04-08T08:34:54;22.60;;;10.63;;
55815;SDS011;41744;52.404;16.942;2023-04-08T08:37:20;23.03;;;10.70;;
55815;SDS011;41744;52.404;16.942;2023-04-08T08:39:46;26.00;;;11.23;;
55815;SDS011;41744;52.404;16.942;2023-04-08T08:42:22;26.27;;;11.87;;
55815;SDS011;41744;52.404;16.942;2023-04-08T08:44:48;26.33;;;11.97;;
55815;SDS011;41744;52.404;16.942;2023-04-08T08:47:15;25.97;;;11.37;;
55815;SDS011;41744;52.404;16.942;2023-04-08T08:49:41;28.67;;;12.33;;
55815;SDS011;41744;52.404;16.942;2023-04-08T08:52:07;27.53;;;11.63;;
55815;SDS011;41744;52.404;16.942;2023-04-08T08:54:34;25.63;;;11.30;;
55815;SDS011;41744;52.404;16.942;2023-04-08T08:57:00;26.20;;;11.57;;
55815;SDS011;41744;52.404;16.942;2023-04-08T08:59:26;26.73;;;11.33;;
55815;SDS011;41744;52.404;16.942;2023-04-08T09:01:52;30.80;;;11.70;;
55815;SDS011;41744;52.404;16.942;2023-04-08T09:04:19;23.87;;;11.00;;
55815;SDS011;41744;52.404;16.942;2023-04-08T09:06:47;30.17;;;11.63;;
55815;SDS011;41744;52.404;16.942;2023-04-08T09:09:15;25.10;;;11.33;;
55815;SDS011;41744;52.404;16.942;2023-04-08T09:11:45;27.97;;;11.90;;
55815;SDS011;41744;52.404;16.942;2023-04-08T09:14:21;28.27;;;12.43;;
55815;SDS011;41744;52.404;16.942;2023-04-08T09:16:48;31.43;;;12.60;;
55815;SDS011;41744;52.404;16.942;2023-04-08T09:19:14;28.17;;;12.67;;
55815;SDS011;41744;52.404;16.942;2023-04-08T09:21:40;27.63;;;12.23;;
55815;SDS011;41744;52.404;16.942;2023-04-08T09:24:08;29.93;;;13.13;;
55815;SDS011;41744;52.404;16.942;2023-04-08T09:26:35;28.03;;;12.77;;
55815;SDS011;41744;52.404;16.942;2023-04-08T09:29:05;28.33;;;12.57;;
55815;SDS011;41744;52.404;16.942;2023-04-08T09:31:33;28.30;;;12.40;;
55815;SDS011;41744;52.404;16.942;2023-04-08T09:34:11;30.10;;;13.27;;
55815;SDS011;41744;52.404;16.942;2023-04-08T09:36:39;29.70;;;12.73;;
55815;SDS011;41744;52.404;16.942;2023-04-08T09:39:05;31.37;;;13.00;;
55815;SDS011;41744;52.404;16.942;2023-04-08T09:41:35;30.07;;;13.87;;
55815;SDS011;41744;52.404;16.942;2023-04-08T09:44:04;30.23;;;12.97;;
55815;SDS011;41744;52.404;16.942;2023-04-08T09:51:44;31.53;;;13.07;;
55815;SDS011;41744;52.404;16.942;2023-04-08T09:54:12;29.03;;;13.30;;
55815;SDS011;41744;52.404;16.942;2023-04-08T09:56:43;30.00;;;13.83;;
55815;SDS011;41744;52.404;16.942;2023-04-08T09:59:13;30.23;;;13.60;;
55815;SDS011;41744;52.404;16.942;2023-04-08T10:01:44;32.97;;;14.17;;
55815;SDS011;41744;52.404;16.942;2023-04-08T10:04:13;30.90;;;13.23;;
55815;SDS011;41744;52.404;16.942;2023-04-08T10:06:41;27.80;;;13.37;;
55815;SDS011;41744;52.404;16.942;2023-04-08T10:09:07;33.10;;;14.30;;
55815;SDS011;41744;52.404;16.942;2023-04-08T10:11:34;30.87;;;13.10;;
55815;SDS011;41744;52.404;16.942;2023-04-08T10:14:01;28.50;;;13.07;;
55815;SDS011;41744;52.404;16.942;2023-04-08T10:16:27;33.47;;;14.23;;
55815;SDS011;41744;52.404;16.942;2023-04-08T10:18:53;27.17;;;13.43;;
55815;SDS011;41744;52.404;16.942;2023-04-08T10:21:30;30.70;;;14.40;;
55815;SDS011;41744;52.404;16.942;2023-04-08T10:23:56;27.93;;;14.30;;
55815;SDS011;41744;52.404;16.942;2023-04-08T10:26:37;24.87;;;13.20;;
55815;SDS011;41744;52.404;16.942;2023-04-08T10:31:48;28.07;;;13.17;;
55815;SDS011;41744;52.404;16.942;2023-04-08T10:34:21;28.53;;;12.90;;
55815;SDS011;41744;52.404;16.942;2023-04-08T10:36:49;30.60;;;13.03;;
55815;SDS011;41744;52.404;16.942;2023-04-08T10:39:15;31.07;;;14.10;;
55815;SDS011;41744;52.404;16.942;2023-04-08T10:41:42;24.97;;;12.43;;
55815;SDS011;41744;52.404;16.942;2023-04-08T10:44:14;27.87;;;13.17;;
55815;SDS011;41744;52.404;16.942;2023-04-08T10:46:41;27.07;;;13.37;;
55815;SDS011;41744;52.404;16.942;2023-04-08T10:49:08;27.70;;;12.37;;
55815;SDS011;41744;52.404;16.942;2023-04-08T10:51:34;27.70;;;12.00;;
55815;SDS011;41744;52.404;16.942;2023-04-08T10:54:06;24.83;;;11.87;;
55815;SDS011;41744;52.404;16.942;2023-04-08T10:56:32;24.77;;;12.10;;
55815;SDS011;41744;52.404;16.942;2023-04-08T10:58:59;24.63;;;11.27;;
55815;SDS011;41744;52.404;16.942;2023-04-08T11:01:25;28.87;;;11.77;;
55815;SDS011;41744;52.404;16.942;2023-04-08T11:03:52;26.50;;;12.00;;
55815;SDS011;41744;52.404;16.942;2023-04-08T11:06:18;21.77;;;11.07;;
55815;SDS011;41744;52.404;16.942;2023-04-08T11:08:44;26.97;;;11.80;;
55815;SDS011;41744;52.404;16.942;2023-04-08T11:11:11;24.20;;;11.70;;
55815;SDS011;41744;52.404;16.942;2023-04-08T11:13:41;24.23;;;11.40;;
55815;SDS011;41744;52.404;16.942;2023-04-08T11:16:08;23.43;;;10.70;;
55815;SDS011;41744;52.404;16.942;2023-04-08T11:18:34;23.53;;;11.30;;
55815;SDS011;41744;52.404;16.942;2023-04-08T11:21:02;21.33;;;10.07;;
55815;SDS011;41744;52.404;16.942;2023-04-08T11:23:28;25.47;;;11.23;;
55815;SDS011;41744;52.404;16.942;2023-04-08T11:25:55;25.10;;;11.87;;
55815;SDS011;41744;52.404;16.942;2023-04-08T11:28:21;22.70;;;11.17;;
55815;SDS011;41744;52.404;16.942;2023-04-08T11:30:47;23.70;;;10.90;;
55815;SDS011;41744;52.404;16.942;2023-04-08T11:33:13;22.57;;;10.43;;
55815;SDS011;41744;52.404;16.942;2023-04-08T11:35:40;22.43;;;10.67;;
55815;SDS011;41744;52.404;16.942;2023-04-08T11:38:07;20.40;;;9.53;;
55815;SDS011;41744;52.404;16.942;2023-04-08T11:40:33;21.60;;;10.20;;
55815;SDS011;41744;52.404;16.942;2023-04-08T11:42:59;21.77;;;10.40;;
55815;SDS011;41744;52.404;16.942;2023-04-08T11:45:36;20.60;;;10.23;;
55815;SDS011;41744;52.404;16.942;2023-04-08T11:48:09;26.47;;;11.83;;
55815;SDS011;41744;52.404;16.942;2023-04-08T11:50:36;21.47;;;11.00;;
55815;SDS011;41744;52.404;16.942;2023-04-08T11:53:02;24.83;;;11.70;;
55815;SDS011;41744;52.404;16.942;2023-04-08T11:55:29;23.47;;;10.37;;
55815;SDS011;41744;52.404;16.942;2023-04-08T11:58:00;22.93;;;11.10;;
55815;SDS011;41744;52.404;16.942;2023-04-08T12:00:27;23.83;;;11.53;;
55815;SDS011;41744;52.404;16.942;2023-04-08T12:02:53;21.47;;;10.30;;
55815;SDS011;41744;52.404;16.942;2023-04-08T12:05:19;24.20;;;11.63;;
55815;SDS011;41744;52.404;16.942;2023-04-08T12:07:46;26.50;;;12.03;;
55815;SDS011;41744;52.404;16.942;2023-04-08T12:10:12;22.43;;;10.83;;
55815;SDS011;41744;52.404;16.942;2023-04-08T12:12:38;22.83;;;10.97;;
55815;SDS011;41744;52.404;16.942;2023-04-08T12:15:05;23.83;;;11.30;;
55815;SDS011;41744;52.404;16.942;2023-04-08T12:17:32;21.67;;;11.03;;
55815;SDS011;41744;52.404;16.942;2023-04-08T12:19:58;22.80;;;11.57;;
55815;SDS011;41744;52.404;16.942;2023-04-08T12:22:25;32.37;;;15.13;;
55815;SDS011;41744;52.404;16.942;2023-04-08T12:24:51;24.57;;;11.70;;
55815;SDS011;41744;52.404;16.942;2023-04-08T12:27:17;25.00;;;11.87;;
55815;SDS011;41744;52.404;16.942;2023-04-08T12:29:43;23.60;;;12.35;;
55815;SDS011;41744;52.404;16.942;2023-04-08T12:32:10;23.77;;;12.03;;
55815;SDS011;41744;52.404;16.942;2023-04-08T12:34:36;24.63;;;12.17;;
55815;SDS011;41744;52.404;16.942;2023-04-08T12:37:02;21.87;;;10.83;;
55815;SDS011;41744;52.404;16.942;2023-04-08T12:39:29;22.83;;;10.83;;
55815;SDS011;41744;52.404;16.942;2023-04-08T12:41:55;22.80;;;11.03;;
55815;SDS011;41744;52.404;16.942;2023-04-08T12:44:21;20.85;;;10.73;;
55815;SDS011;41744;52.404;16.942;2023-04-08T12:46:47;22.47;;;10.80;;
55815;SDS011;41744;52.404;16.942;2023-04-08T12:49:13;21.80;;;10.67;;
55815;SDS011;41744;52.404;16.942;2023-04-08T12:51:39;21.43;;;11.17;;
55815;SDS011;41744;52.404;16.942;2023-04-08T12:54:05;23.77;;;10.57;;
55815;SDS011;41744;52.404;16.942;2023-04-08T12:56:32;19.17;;;10.13;;
55815;SDS011;41744;52.404;16.942;2023-04-08T12:58:59;22.58;;;11.02;;
55815;SDS011;41744;52.404;16.942;2023-04-08T13:01:25;20.13;;;10.53;;
55815;SDS011;41744;52.404;16.942;2023-04-08T13:03:51;23.10;;;11.50;;
55815;SDS011;41744;52.404;16.942;2023-04-08T13:06:18;20.53;;;10.23;;
55815;SDS011;41744;52.404;16.942;2023-04-08T13:08:44;19.40;;;9.83;;
55815;SDS011;41744;52.404;16.942;2023-04-08T13:11:11;19.90;;;10.15;;
55815;SDS011;41744;52.404;16.942;2023-04-08T13:13:37;22.97;;;10.63;;
55815;SDS011;41744;52.404;16.942;2023-04-08T13:16:03;21.83;;;10.13;;
55815;SDS011;41744;52.404;16.942;2023-04-08T13:18:29;20.60;;;10.67;;
55815;SDS011;41744;52.404;16.942;2023-04-08T13:20:55;21.87;;;10.20;;
55815;SDS011;41744;52.404;16.942;2023-04-08T13:23:22;20.80;;;10.43;;
55815;SDS011;41744;52.404;16.942;2023-04-08T13:25:48;19.80;;;10.20;;
55815;SDS011;41744;52.404;16.942;2023-04-08T13:28:15;21.47;;;10.27;;
55815;SDS011;41744;52.404;16.942;2023-04-08T13:30:41;20.90;;;10.50;;
55815;SDS011;41744;52.404;16.942;2023-04-08T13:33:07;19.97;;;10.43;;
55815;SDS011;41744;52.404;16.942;2023-04-08T13:35:33;21.20;;;10.20;;
55815;SDS011;41744;52.404;16.942;2023-04-08T13:38:00;20.87;;;10.63;;
55815;SDS011;41744;52.404;16.942;2023-04-08T13:40:26;19.42;;;10.13;;
55815;SDS011;41744;52.404;16.942;2023-04-08T13:42:52;20.65;;;10.40;;
55815;SDS011;41744;52.404;16.942;2023-04-08T13:45:18;20.33;;;10.37;;
55815;SDS011;41744;52.404;16.942;2023-04-08T13:47:44;22.65;;;10.68;;
55815;SDS011;41744;52.404;16.942;2023-04-08T13:50:11;20.27;;;11.03;;
55815;SDS011;41744;52.404;16.942;2023-04-08T13:52:37;23.45;;;10.30;;
55815;SDS011;41744;52.404;16.942;2023-04-08T13:55:03;17.63;;;9.33;;
55815;SDS011;41744;52.404;16.942;2023-04-08T13:57:29;19.20;;;9.47;;
55815;SDS011;41744;52.404;16.942;2023-04-08T13:59:55;18.03;;;9.40;;
55815;SDS011;41744;52.404;16.942;2023-04-08T14:02:21;17.50;;;9.30;;
55815;SDS011;41744;52.404;16.942;2023-04-08T14:04:48;21.03;;;10.10;;
55815;SDS011;41744;52.404;16.942;2023-04-08T14:07:14;18.57;;;9.57;;
55815;SDS011;41744;52.404;16.942;2023-04-08T14:09:40;17.87;;;9.77;;
55815;SDS011;41744;52.404;16.942;2023-04-08T14:12:06;20.43;;;10.07;;
55815;SDS011;41744;52.404;16.942;2023-04-08T14:14:32;26.00;;;9.37;;
55815;SDS011;41744;52.404;16.942;2023-04-08T14:16:58;20.90;;;10.07;;
55815;SDS011;41744;52.404;16.942;2023-04-08T14:19:24;20.27;;;10.50;;
55815;SDS011;41744;52.404;16.942;2023-04-08T14:21:50;19.15;;;9.50;;